sensor_id;sensor_type;location;lat;lon;timestamp;pressure;altitude;pressure_sealevel;temperature;humidity
60375;BME280;70244;48.792;9.172;2023-11-22T05:16:12;98212.50;;;16.89;76.67
60375;BME280;70244;48.792;9.172;2023-11-22T05:18:43;98214.54;;;16.83;76.96
60375;BME280;70244;48.792;9.172;2023-11-22T05:21:14;98220.75;;;16.76;77.09
60375;BME280;70244;48.792;9.172;2023-11-22T05:23:44;98222.17;;;16.81;77.09
60375;BME280;70244;48.792;9.172;2023-11-22T05:26:15;98229.72;;;16.80;77.13
60375;BME280;70244;48.792;9.172;2023-11-22T05:28:46;98238.92;;;16.76;77.32
60375;BME280;70244;48.792;9.172;2023-11-22T05:31:16;98236.62;;;16.98;76.65
60375;BME280;70244;48.792;9.172;2023-11-22T05:33:47;98236.46;;;16.66;77.62
60375;BME280;70244;48.792;9.172;2023-11-22T05:36:18;98234.28;;;16.44;78.38
60375;BME280;70244;48.792;9.172;2023-11-22T05:38:48;98235.46;;;16.48;78.46
60375;BME280;70244;48.792;9.172;2023-11-22T05:41:19;98228.92;;;16.57;78.21
60375;BME280;70244;48.792;9.172;2023-11-22T05:43:49;98232.18;;;16.63;78.07
60375;BME280;70244;48.792;9.172;2023-11-22T05:46:21;98233.13;;;16.62;78.15
60375;BME280;70244;48.792;9.172;2023-11-22T05:48:50;98227.94;;;16.72;78.06
60375;BME280;70244;48.792;9.172;2023-11-22T05:51:21;98232.31;;;17.05;77.24
60375;BME280;70244;48.792;9.172;2023-11-22T05:53:51;98237.61;;;17.31;76.63
60375;BME280;70244;48.792;9.172;2023-11-22T05:56:22;98240.51;;;17.88;74.93
60375;BME280;70244;48.792;9.172;2023-11-22T05:58:52;98246.51;;;17.86;74.90
60375;BME280;70244;48.792;9.172;2023-11-22T06:01:23;98257.63;;;17.82;75.24
60375;BME280;70244;48.792;9.172;2023-11-22T06:03:53;98260.20;;;17.92;74.82
60375;BME280;70244;48.792;9.172;2023-11-22T06:06:24;98262.28;;;18.07;74.34
60375;BME280;70244;48.792;9.172;2023-11-22T06:08:55;98266.57;;;18.40;73.09
60375;BME280;70244;48.792;9.172;2023-11-22T06:11:26;98270.77;;;18.82;70.13
60375;BME280;70244;48.792;9.172;2023-11-22T06:13:56;98280.95;;;19.27;67.90
60375;BME280;70244;48.792;9.172;2023-11-22T06:16:27;98282.51;;;19.26;63.07
60375;BME280;70244;48.792;9.172;2023-11-22T06:18:57;98289.68;;;19.16;63.62
60375;BME280;70244;48.792;9.172;2023-11-22T06:21:28;98293.84;;;19.30;61.11
60375;BME280;70244;48.792;9.172;2023-11-22T06:23:59;98299.09;;;19.41;61.35
60375;BME280;70244;48.792;9.172;2023-11-22T06:26:29;98299.94;;;18.95;59.94
60375;BME280;70244;48.792;9.172;2023-11-22T06:29:00;98307.13;;;18.65;61.91
60375;BME280;70244;48.792;9.172;2023-11-22T06:31:31;98311.35;;;18.37;62.83
60375;BME280;70244;48.792;9.172;2023-11-22T06:34:02;98310.12;;;18.32;63.60
60375;BME280;70244;48.792;9.172;2023-11-22T06:36:32;98310.58;;;18.58;64.42
60375;BME280;70244;48.792;9.172;2023-11-22T06:39:03;98313.63;;;18.49;64.52
60375;BME280;70244;48.792;9.172;2023-11-22T06:41:34;98315.72;;;18.50;64.53
60375;BME280;70244;48.792;9.172;2023-11-22T06:44:05;98309.03;;;18.48;65.14
60375;BME280;70244;48.792;9.172;2023-11-22T06:46:35;98311.34;;;18.48;65.51
60375;BME280;70244;48.792;9.172;2023-11-22T06:49:06;98311.10;;;18.40;66.73
60375;BME280;70244;48.792;9.172;2023-11-22T06:51:37;98314.40;;;18.17;67.29
60375;BME280;70244;48.792;9.172;2023-11-22T06:54:07;98321.62;;;18.23;67.68
60375;BME280;70244;48.792;9.172;2023-11-22T06:56:38;98325.55;;;18.24;67.83
60375;BME280;70244;48.792;9.172;2023-11-22T06:59:09;98327.98;;;18.15;68.52
60375;BME280;70244;48.792;9.172;2023-11-22T07:01:40;98333.08;;;18.10;68.86
60375;BME280;70244;48.792;9.172;2023-11-22T07:04:10;98339.66;;;18.17;68.80
60375;BME280;70244;48.792;9.172;2023-11-22T07:06:41;98331.70;;;18.39;68.41
60375;BME280;70244;48.792;9.172;2023-11-22T07:09:12;98343.04;;;18.32;68.64
60375;BME280;70244;48.792;9.172;2023-11-22T07:11:42;98337.22;;;18.39;68.56
60375;BME280;70244;48.792;9.172;2023-11-22T07:14:12;98343.73;;;18.29;69.31
60375;BME280;70244;48.792;9.172;2023-11-22T07:16:43;98341.73;;;18.21;69.45
60375;BME280;70244;48.792;9.172;2023-11-22T07:19:13;98345.41;;;18.23;69.53
60375;BME280;70244;48.792;9.172;2023-11-22T07:21:44;98347.90;;;17.99;70.84
60375;BME280;70244;48.792;9.172;2023-11-22T07:24:15;98357.90;;;17.98;70.87
60375;BME280;70244;48.792;9.172;2023-11-22T07:26:46;98358.68;;;17.92;71.01
60375;BME280;70244;48.792;9.172;2023-11-22T07:29:16;98365.78;;;17.93;70.67
60375;BME280;70244;48.792;9.172;2023-11-22T07:31:47;98374.91;;;17.93;70.41
60375;BME280;70244;48.792;9.172;2023-11-22T07:34:18;98382.39;;;17.93;70.36
60375;BME280;70244;48.792;9.172;2023-11-22T07:36:49;98392.93;;;17.87;70.49
60375;BME280;70244;48.792;9.172;2023-11-22T07:39:19;98396.48;;;17.88;70.57
60375;BME280;70244;48.792;9.172;2023-11-22T07:41:50;98399.59;;;17.81;70.94
60375;BME280;70244;48.792;9.172;2023-11-22T07:44:21;98402.17;;;17.78;71.12
60375;BME280;70244;48.792;9.172;2023-11-22T07:46:51;98406.10;;;17.67;71.43
60375;BME280;70244;48.792;9.172;2023-11-22T07:49:22;98409.60;;;17.66;71.46
60375;BME280;70244;48.792;9.172;2023-11-22T07:51:52;98411.40;;;17.74;71.22
60375;BME280;70244;48.792;9.172;2023-11-22T07:54:23;98412.36;;;17.66;71.43
60375;BME280;70244;48.792;9.172;2023-11-22T07:56:54;98409.50;;;17.56;71.67
60375;BME280;70244;48.792;9.172;2023-11-22T07:59:24;98406.77;;;17.50;71.83
60375;BME280;70244;48.792;9.172;2023-11-22T08:01:55;98407.09;;;17.59;71.68
60375;BME280;70244;48.792;9.172;2023-11-22T08:04:25;98406.98;;;17.45;72.10
60375;BME280;70244;48.792;9.172;2023-11-22T08:06:56;98408.15;;;17.52;71.92
60375;BME280;70244;48.792;9.172;2023-11-22T08:09:27;98410.09;;;17.40;72.30
60375;BME280;70244;48.792;9.172;2023-11-22T08:11:57;98406.29;;;17.39;72.36
60375;BME280;70244;48.792;9.172;2023-11-22T08:14:28;98412.18;;;17.30;72.68
60375;BME280;70244;48.792;9.172;2023-11-22T08:16:59;98414.48;;;17.36;72.58
60375;BME280;70244;48.792;9.172;2023-11-22T08:19:30;98413.39;;;17.53;72.12
60375;BME280;70244;48.792;9.172;2023-11-22T08:22:00;98411.06;;;17.41;72.47
60375;BME280;70244;48.792;9.172;2023-11-22T08:24:31;98412.31;;;17.35;72.72
60375;BME280;70244;48.792;9.172;2023-11-22T08:27:02;98414.88;;;17.40;72.62
60375;BME280;70244;48.792;9.172;2023-11-22T08:29:32;98415.77;;;17.38;72.68
60375;BME280;70244;48.792;9.172;2023-11-22T08:32:04;98414.96;;;17.63;72.17
60375;BME280;70244;48.792;9.172;2023-11-22T08:34:34;98410.54;;;17.49;72.69
60375;BME280;70244;48.792;9.172;2023-11-22T08:37:04;98413.92;;;17.53;73.70
60375;BME280;70244;48.792;9.172;2023-11-22T08:39:35;98415.76;;;17.35;73.51
60375;BME280;70244;48.792;9.172;2023-11-22T08:42:06;98418.33;;;17.14;74.56
60375;BME280;70244;48.792;9.172;2023-11-22T08:44:36;98423.43;;;17.20;74.81
60375;BME280;70244;48.792;9.172;2023-11-22T08:47:07;98426.79;;;17.07;75.71
60375;BME280;70244;48.792;9.172;2023-11-22T08:49:38;98424.59;;;17.30;75.40
60375;BME280;70244;48.792;9.172;2023-11-22T08:52:09;98422.83;;;17.34;74.86
60375;BME280;70244;48.792;9.172;2023-11-22T08:54:40;98430.43;;;17.16;74.86
60375;BME280;70244;48.792;9.172;2023-11-22T08:57:10;98431.76;;;17.10;74.96
60375;BME280;70244;48.792;9.172;2023-11-22T08:59:41;98431.59;;;17.13;75.12
60375;BME280;70244;48.792;9.172;2023-11-22T09:02:12;98431.12;;;17.13;74.98
60375;BME280;70244;48.792;9.172;2023-11-22T09:04:43;98429.68;;;17.13;75.38
60375;BME280;70244;48.792;9.172;2023-11-22T09:07:13;98430.36;;;17.04;75.92
60375;BME280;70244;48.792;9.172;2023-11-22T09:09:44;98429.00;;;16.97;76.42
60375;BME280;70244;48.792;9.172;2023-11-22T09:12:14;98422.07;;;17.04;76.45
60375;BME280;70244;48.792;9.172;2023-11-22T09:14:45;98419.27;;;16.96;76.30
60375;BME280;70244;48.792;9.172;2023-11-22T09:17:16;98420.71;;;16.94;76.02
60375;BME280;70244;48.792;9.172;2023-11-22T09:19:46;98422.37;;;17.05;75.47
60375;BME280;70244;48.792;9.172;2023-11-22T09:22:17;98428.20;;;16.97;75.72
60375;BME280;70244;48.792;9.172;2023-11-22T09:24:48;98431.84;;;17.03;75.49
60375;BME280;70244;48.792;9.172;2023-11-22T09:27:18;98431.74;;;17.01;75.57
60375;BME280;70244;48.792;9.172;2023-11-22T09:29:49;98435.79;;;17.24;74.90
60375;BME280;70244;48.792;9.172;2023-11-22T09:32:20;98430.40;;;17.20;75.07
60375;BME280;70244;48.792;9.172;2023-11-22T09:34:50;98434.45;;;17.23;75.04
60375;BME280;70244;48.792;9.172;2023-11-22T09:37:21;98440.04;;;17.31;74.93
60375;BME280;70244;48.792;9.172;2023-11-22T09:39:52;98441.22;;;17.23;75.31
60375;BME280;70244;48.792;9.172;2023-11-22T09:42:23;98436.50;;;17.18;75.55
60375;BME280;70244;48.792;9.172;2023-11-22T09:44:53;98434.87;;;17.27;75.48
60375;BME280;70244;48.792;9.172;2023-11-22T09:47:24;98443.42;;;17.23;75.62
60375;BME280;70244;48.792;9.172;2023-11-22T09:49:57;98451.09;;;17.30;76.70
60375;BME280;70244;48.792;9.172;2023-11-22T09:52:28;98454.65;;;17.32;76.71
60375;BME280;70244;48.792;9.172;2023-11-22T09:54:56;98454.11;;;17.29;76.66
60375;BME280;70244;48.792;9.172;2023-11-22T09:57:28;98464.38;;;17.42;76.37
60375;BME280;70244;48.792;9.172;2023-11-22T09:59:58;98468.84;;;17.35;76.88
60375;BME280;70244;48.792;9.172;2023-11-22T10:02:28;98476.75;;;17.49;76.53
60375;BME280;70244;48.792;9.172;2023-11-22T10:04:59;98487.60;;;17.40;76.87
60375;BME280;70244;48.792;9.172;2023-11-22T10:07:30;98490.16;;;17.50;76.70
60375;BME280;70244;48.792;9.172;2023-11-22T10:10:00;98495.73;;;17.54;76.75
60375;BME280;70244;48.792;9.172;2023-11-22T10:12:32;98500.99;;;17.76;76.11
60375;BME280;70244;48.792;9.172;2023-11-22T10:15:10;98498.53;;;17.75;76.17
60375;BME280;70244;48.792;9.172;2023-11-22T10:17:32;98497.49;;;17.58;76.75
60375;BME280;70244;48.792;9.172;2023-11-22T10:20:04;98496.63;;;17.56;76.85
60375;BME280;70244;48.792;9.172;2023-11-22T10:22:43;98499.98;;;17.65;76.58
60375;BME280;70244;48.792;9.172;2023-11-22T10:25:05;98492.38;;;17.69;76.72
60375;BME280;70244;48.792;9.172;2023-11-22T10:27:35;98492.44;;;18.33;75.46
60375;BME280;70244;48.792;9.172;2023-11-22T10:30:07;98492.65;;;18.46;74.87
60375;BME280;70244;48.792;9.172;2023-11-22T10:32:37;98493.37;;;18.24;75.24
60375;BME280;70244;48.792;9.172;2023-11-22T10:35:07;98488.08;;;18.32;74.86
60375;BME280;70244;48.792;9.172;2023-11-22T10:37:37;98487.01;;;17.96;76.02
60375;BME280;70244;48.792;9.172;2023-11-22T10:40:09;98485.90;;;17.68;76.88
60375;BME280;70244;48.792;9.172;2023-11-22T10:42:40;98482.56;;;17.74;76.81
60375;BME280;70244;48.792;9.172;2023-11-22T10:45:10;98486.56;;;17.64;77.51
60375;BME280;70244;48.792;9.172;2023-11-22T10:47:40;98487.70;;;17.68;78.17
60375;BME280;70244;48.792;9.172;2023-11-22T10:50:11;98490.40;;;17.64;79.06
60375;BME280;70244;48.792;9.172;2023-11-22T10:52:42;98486.76;;;17.94;78.21
60375;BME280;70244;48.792;9.172;2023-11-22T10:55:15;98489.81;;;17.88;78.79
60375;BME280;70244;48.792;9.172;2023-11-22T10:57:45;98493.78;;;17.97;78.71
60375;BME280;70244;48.792;9.172;2023-11-22T11:00:15;98492.00;;;18.22;77.82
60375;BME280;70244;48.792;9.172;2023-11-22T11:02:46;98496.22;;;18.37;77.18
60375;BME280;70244;48.792;9.172;2023-11-22T11:05:17;98500.04;;;18.22;77.85
60375;BME280;70244;48.792;9.172;2023-11-22T11:07:52;98508.82;;;18.39;77.22
60375;BME280;70244;48.792;9.172;2023-11-22T11:10:19;98512.56;;;18.46;76.91
60375;BME280;70244;48.792;9.172;2023-11-22T11:12:47;98511.14;;;18.39;77.02
60375;BME280;70244;48.792;9.172;2023-11-22T11:15:18;98513.53;;;18.44;76.80
60375;BME280;70244;48.792;9.172;2023-11-22T11:17:49;98522.79;;;18.49;76.50
60375;BME280;70244;48.792;9.172;2023-11-22T11:20:21;98519.26;;;18.37;76.82
60375;BME280;70244;48.792;9.172;2023-11-22T11:22:50;98512.24;;;18.53;76.31
60375;BME280;70244;48.792;9.172;2023-11-22T11:25:21;98521.43;;;18.37;76.75
60375;BME280;70244;48.792;9.172;2023-11-22T11:27:56;98523.79;;;18.41;76.57
60375;BME280;70244;48.792;9.172;2023-11-22T11:32:53;98517.28;;;18.47;76.34
60375;BME280;70244;48.792;9.172;2023-11-22T11:37:59;98515.41;;;18.36;76.53
60375;BME280;70244;48.792;9.172;2023-11-22T11:40:25;98513.58;;;18.42;76.41
60375;BME280;70244;48.792;9.172;2023-11-22T11:42:55;98509.43;;;18.23;76.96
60375;BME280;70244;48.792;9.172;2023-11-22T11:45:27;98514.72;;;18.40;76.43
60375;BME280;70244;48.792;9.172;2023-11-22T11:47:57;98517.99;;;18.21;76.95
60375;BME280;70244;48.792;9.172;2023-11-22T11:50:28;98525.90;;;18.47;76.24
60375;BME280;70244;48.792;9.172;2023-11-22T11:52:59;98528.59;;;18.19;76.92
60375;BME280;70244;48.792;9.172;2023-11-22T11:55:29;98535.08;;;18.11;77.31
60375;BME280;70244;48.792;9.172;2023-11-22T11:58:04;98539.30;;;18.30;76.71
60375;BME280;70244;48.792;9.172;2023-11-22T12:00:31;98539.46;;;18.38;77.22
60375;BME280;70244;48.792;9.172;2023-11-22T12:03:03;98541.28;;;18.30;79.62
60375;BME280;70244;48.792;9.172;2023-11-22T12:05:32;98545.54;;;18.44;78.35
60375;BME280;70244;48.792;9.172;2023-11-22T12:08:03;98545.57;;;18.44;77.58
60375;BME280;70244;48.792;9.172;2023-11-22T12:10:34;98553.64;;;18.58;76.81
60375;BME280;70244;48.792;9.172;2023-11-22T12:13:04;98564.17;;;19.23;74.30
60375;BME280;70244;48.792;9.172;2023-11-22T12:15:35;98558.92;;;19.83;71.76
60375;BME280;70244;48.792;9.172;2023-11-22T12:18:06;98559.85;;;19.90;70.58
60375;BME280;70244;48.792;9.172;2023-11-22T12:20:38;98562.54;;;20.14;67.02
60375;BME280;70244;48.792;9.172;2023-11-22T12:23:08;98575.40;;;18.87;68.52
60375;BME280;70244;48.792;9.172;2023-11-22T12:25:38;98587.67;;;18.43;68.96
60375;BME280;70244;48.792;9.172;2023-11-22T12:28:09;98583.29;;;18.52;69.80
60375;BME280;70244;48.792;9.172;2023-11-22T12:30:39;98585.34;;;18.15;69.60
60375;BME280;70244;48.792;9.172;2023-11-22T12:33:10;98580.87;;;18.42;67.91
60375;BME280;70244;48.792;9.172;2023-11-22T12:35:42;98586.27;;;17.95;67.96
60375;BME280;70244;48.792;9.172;2023-11-22T12:38:11;98588.31;;;18.03;68.30
60375;BME280;70244;48.792;9.172;2023-11-22T12:40:46;98595.56;;;17.76;69.18
60375;BME280;70244;48.792;9.172;2023-11-22T12:43:13;98590.23;;;17.87;71.72
60375;BME280;70244;48.792;9.172;2023-11-22T12:45:43;98581.85;;;18.03;70.49
60375;BME280;70244;48.792;9.172;2023-11-22T12:48:20;98576.96;;;18.04;70.65
60375;BME280;70244;48.792;9.172;2023-11-22T12:50:44;98570.53;;;17.99;70.73
60375;BME280;70244;48.792;9.172;2023-11-22T12:53:15;98568.63;;;18.02;70.88
60375;BME280;70244;48.792;9.172;2023-11-22T12:55:47;98570.49;;;18.00;71.14
60375;BME280;70244;48.792;9.172;2023-11-22T12:58:17;98574.43;;;18.06;70.92
60375;BME280;70244;48.792;9.172;2023-11-22T13:00:49;98571.68;;;18.22;70.48
60375;BME280;70244;48.792;9.172;2023-11-22T13:03:17;98560.37;;;18.42;69.89
60375;BME280;70244;48.792;9.172;2023-11-22T13:05:48;98559.60;;;18.20;70.49
60375;BME280;70244;48.792;9.172;2023-11-22T13:08:20;98557.93;;;18.38;70.20
60375;BME280;70244;48.792;9.172;2023-11-22T13:10:50;98563.04;;;18.27;70.61
60375;BME280;70244;48.792;9.172;2023-11-22T13:13:21;98565.62;;;18.26;70.73
60375;BME280;70244;48.792;9.172;2023-11-22T13:15:51;98562.52;;;18.34;70.64
60375;BME280;70244;48.792;9.172;2023-11-22T13:18:22;98557.91;;;18.53;70.26
60375;BME280;70244;48.792;9.172;2023-11-22T13:20:52;98559.86;;;18.36;70.82
60375;BME280;70244;48.792;9.172;2023-11-22T13:23:23;98559.47;;;18.35;70.95
60375;BME280;70244;48.792;9.172;2023-11-22T13:25:54;98568.07;;;18.31;71.21
60375;BME280;70244;48.792;9.172;2023-11-22T13:28:24;98574.32;;;18.34;71.18
60375;BME280;70244;48.792;9.172;2023-11-22T13:30:55;98582.05;;;18.35;71.22
60375;BME280;70244;48.792;9.172;2023-11-22T13:33:26;98590.75;;;18.43;71.22
60375;BME280;70244;48.792;9.172;2023-11-22T13:35:56;98583.51;;;18.22;71.82
60375;BME280;70244;48.792;9.172;2023-11-22T13:38:27;98580.97;;;18.43;71.35
60375;BME280;70244;48.792;9.172;2023-11-22T13:40:58;98590.36;;;18.35;71.68
60375;BME280;70244;48.792;9.172;2023-11-22T13:43:28;98585.19;;;18.34;71.75
60375;BME280;70244;48.792;9.172;2023-11-22T13:45:59;98573.80;;;18.24;72.10
60375;BME280;70244;48.792;9.172;2023-11-22T13:48:29;98577.70;;;18.31;71.93
60375;BME280;70244;48.792;9.172;2023-11-22T13:51:00;98555.13;;;18.32;71.98
60375;BME280;70244;48.792;9.172;2023-11-22T13:53:31;98555.36;;;18.18;72.41
60375;BME280;70244;48.792;9.172;2023-11-22T13:56:02;98564.05;;;18.29;72.16
60375;BME280;70244;48.792;9.172;2023-11-22T13:58:32;98569.67;;;18.14;72.66
60375;BME280;70244;48.792;9.172;2023-11-22T14:01:03;98570.12;;;18.10;72.93
60375;BME280;70244;48.792;9.172;2023-11-22T14:03:34;98569.53;;;18.24;72.58
60375;BME280;70244;48.792;9.172;2023-11-22T14:06:05;98562.10;;;18.18;72.75
60375;BME280;70244;48.792;9.172;2023-11-22T14:08:35;98570.83;;;18.18;72.78
60375;BME280;70244;48.792;9.172;2023-11-22T14:11:06;98572.73;;;18.20;72.82
60375;BME280;70244;48.792;9.172;2023-11-22T14:13:37;98583.53;;;18.06;73.27
60375;BME280;70244;48.792;9.172;2023-11-22T14:16:08;98584.26;;;18.02;73.42
60375;BME280;70244;48.792;9.172;2023-11-22T14:18:38;98586.62;;;18.12;73.15
60375;BME280;70244;48.792;9.172;2023-11-22T14:21:09;98585.48;;;18.21;72.98
60375;BME280;70244;48.792;9.172;2023-11-22T14:23:40;98585.76;;;18.10;73.26
60375;BME280;70244;48.792;9.172;2023-11-22T14:26:10;98589.90;;;18.03;73.53
60375;BME280;70244;48.792;9.172;2023-11-22T14:28:41;98598.61;;;18.06;73.50
60375;BME280;70244;48.792;9.172;2023-11-22T14:31:12;98613.50;;;17.92;74.00
60375;BME280;70244;48.792;9.172;2023-11-22T14:33:43;98605.15;;;18.18;73.27
60375;BME280;70244;48.792;9.172;2023-11-22T14:36:13;98607.14;;;18.15;73.33
60375;BME280;70244;48.792;9.172;2023-11-22T14:38:44;98614.20;;;18.15;73.35
60375;BME280;70244;48.792;9.172;2023-11-22T14:41:15;98616.52;;;18.06;73.68
60375;BME280;70244;48.792;9.172;2023-11-22T14:43:46;98619.26;;;18.03;73.82
60375;BME280;70244;48.792;9.172;2023-11-22T14:46:16;98618.19;;;18.04;73.79
60375;BME280;70244;48.792;9.172;2023-11-22T14:48:47;98605.96;;;18.15;73.42
60375;BME280;70244;48.792;9.172;2023-11-22T14:51:17;98597.24;;;18.22;73.26
60375;BME280;70244;48.792;9.172;2023-11-22T14:53:48;98593.43;;;18.34;72.87
60375;BME280;70244;48.792;9.172;2023-11-22T14:56:19;98593.50;;;18.26;73.16
60375;BME280;70244;48.792;9.172;2023-11-22T14:58:50;98595.63;;;18.38;72.90
60375;BME280;70244;48.792;9.172;2023-11-22T15:01:21;98592.91;;;18.23;73.31
60375;BME280;70244;48.792;9.172;2023-11-22T15:03:51;98586.27;;;18.26;73.25
60375;BME280;70244;48.792;9.172;2023-11-22T15:06:22;98591.16;;;18.15;73.65
60375;BME280;70244;48.792;9.172;2023-11-22T15:08:53;98592.11;;;18.12;73.77
60375;BME280;70244;48.792;9.172;2023-11-22T15:11:23;98583.11;;;18.31;73.15
60375;BME280;70244;48.792;9.172;2023-11-22T15:13:54;98579.17;;;18.26;73.36
60375;BME280;70244;48.792;9.172;2023-11-22T15:16:24;98586.06;;;18.14;73.67
60375;BME280;70244;48.792;9.172;2023-11-22T15:18:55;98590.45;;;18.17;73.63
60375;BME280;70244;48.792;9.172;2023-11-22T15:21:26;98597.03;;;18.17;73.47
60375;BME280;70244;48.792;9.172;2023-11-22T15:23:57;98609.39;;;17.87;74.64
60375;BME280;70244;48.792;9.172;2023-11-22T15:26:27;98598.55;;;18.13;73.86
60375;BME280;70244;48.792;9.172;2023-11-22T15:28:58;98605.74;;;17.88;74.90
60375;BME280;70244;48.792;9.172;2023-11-22T15:31:28;98609.43;;;17.76;75.43
60375;BME280;70244;48.792;9.172;2023-11-22T15:33:59;98612.25;;;17.77;75.55
60375;BME280;70244;48.792;9.172;2023-11-22T15:36:30;98615.56;;;17.93;75.15
60375;BME280;70244;48.792;9.172;2023-11-22T15:39:01;98620.12;;;17.86;75.39
60375;BME280;70244;48.792;9.172;2023-11-22T15:41:32;98627.70;;;17.73;75.85
60375;BME280;70244;48.792;9.172;2023-11-22T15:44:02;98629.07;;;17.92;75.29
60375;BME280;70244;48.792;9.172;2023-11-22T15:46:33;98617.85;;;17.98;75.11
60375;BME280;70244;48.792;9.172;2023-11-22T15:49:03;98617.50;;;17.82;75.75
60375;BME280;70244;48.792;9.172;2023-11-22T15:51:34;98623.76;;;17.72;76.07
60375;BME280;70244;48.792;9.172;2023-11-22T15:54:05;98630.77;;;17.99;75.31
60375;BME280;70244;48.792;9.172;2023-11-22T15:56:35;98630.21;;;17.81;75.85
60375;BME280;70244;48.792;9.172;2023-11-22T15:59:06;98637.11;;;17.95;75.46
60375;BME280;70244;48.792;9.172;2023-11-22T16:01:37;98636.34;;;18.09;75.12
60375;BME280;70244;48.792;9.172;2023-11-22T16:04:07;98644.42;;;18.03;75.45
60375;BME280;70244;48.792;9.172;2023-11-22T16:06:38;98642.52;;;18.38;74.41
60375;BME280;70244;48.792;9.172;2023-11-22T16:09:09;98641.31;;;18.41;74.69
60375;BME280;70244;48.792;9.172;2023-11-22T16:11:40;98644.61;;;18.73;73.93
60375;BME280;70244;48.792;9.172;2023-11-22T16:14:10;98645.03;;;18.81;73.63
60375;BME280;70244;48.792;9.172;2023-11-22T16:16:41;98649.21;;;18.87;73.55
60375;BME280;70244;48.792;9.172;2023-11-22T16:19:12;98651.32;;;19.03;73.06
60375;BME280;70244;48.792;9.172;2023-11-22T16:21:42;98651.94;;;19.14;72.76
60375;BME280;70244;48.792;9.172;2023-11-22T16:24:13;98647.38;;;19.27;72.38
60375;BME280;70244;48.792;9.172;2023-11-22T16:26:43;98641.03;;;19.22;72.55
60375;BME280;70244;48.792;9.172;2023-11-22T16:29:14;98638.42;;;19.37;72.28
60375;BME280;70244;48.792;9.172;2023-11-22T16:31:45;98637.44;;;19.48;72.03
60375;BME280;70244;48.792;9.172;2023-11-22T16:34:16;98641.98;;;19.73;71.30
60375;BME280;70244;48.792;9.172;2023-11-22T16:36:49;98647.10;;;19.74;71.18
60375;BME280;70244;48.792;9.172;2023-11-22T16:39:17;98653.51;;;19.74;71.28
60375;BME280;70244;48.792;9.172;2023-11-22T16:41:48;98664.85;;;19.80;71.13
60375;BME280;70244;48.792;9.172;2023-11-22T16:44:19;98675.55;;;19.89;70.76
60375;BME280;70244;48.792;9.172;2023-11-22T16:46:49;98680.40;;;19.90;70.78
60375;BME280;70244;48.792;9.172;2023-11-22T16:49:20;98680.37;;;19.82;70.95
60375;BME280;70244;48.792;9.172;2023-11-22T16:51:51;98682.76;;;19.73;71.06
60375;BME280;70244;48.792;9.172;2023-11-22T16:54:22;98682.88;;;19.57;71.44
60375;BME280;70244;48.792;9.172;2023-11-22T16:56:52;98687.24;;;19.54;71.41
60375;BME280;70244;48.792;9.172;2023-11-22T16:59:23;98684.16;;;19.55;71.34
60375;BME280;70244;48.792;9.172;2023-11-22T17:01:54;98681.99;;;19.31;72.02
60375;BME280;70244;48.792;9.172;2023-11-22T17:04:24;98670.38;;;19.31;72.11
60375;BME280;70244;48.792;9.172;2023-11-22T17:06:55;98672.81;;;19.31;72.10
60375;BME280;70244;48.792;9.172;2023-11-22T17:09:26;98672.56;;;19.35;71.94
60375;BME280;70244;48.792;9.172;2023-11-22T17:11:56;98672.07;;;19.18;72.43
60375;BME280;70244;48.792;9.172;2023-11-22T17:14:27;98676.11;;;18.89;73.75
60375;BME280;70244;48.792;9.172;2023-11-22T17:16:58;98682.91;;;18.96;81.84
60375;BME280;70244;48.792;9.172;2023-11-22T17:19:28;98686.50;;;19.54;79.94
60375;BME280;70244;48.792;9.172;2023-11-22T17:21:59;98689.26;;;19.19;80.15
60375;BME280;70244;48.792;9.172;2023-11-22T17:24:30;98695.71;;;19.14;82.51
60375;BME280;70244;48.792;9.172;2023-11-22T17:27:00;98701.74;;;19.41;82.34
60375;BME280;70244;48.792;9.172;2023-11-22T17:29:30;98711.73;;;19.15;81.86
60375;BME280;70244;48.792;9.172;2023-11-22T17:32:00;98715.95;;;19.45;79.52
60375;BME280;70244;48.792;9.172;2023-11-22T17:34:31;98715.23;;;19.27;82.53
60375;BME280;70244;48.792;9.172;2023-11-22T17:37:02;98721.56;;;19.56;82.70
60375;BME280;70244;48.792;9.172;2023-11-22T17:39:33;98724.60;;;19.39;82.55
60375;BME280;70244;48.792;9.172;2023-11-22T17:42:03;98726.27;;;19.27;82.15
60375;BME280;70244;48.792;9.172;2023-11-22T17:44:33;98732.13;;;19.09;81.92
60375;BME280;70244;48.792;9.172;2023-11-22T17:47:04;98734.17;;;19.26;81.21
60375;BME280;70244;48.792;9.172;2023-11-22T17:49:34;98738.72;;;19.16;80.95
60375;BME280;70244;48.792;9.172;2023-11-22T17:52:05;98743.25;;;19.60;78.66
60375;BME280;70244;48.792;9.172;2023-11-22T17:54:36;98744.39;;;19.35;79.59
60375;BME280;70244;48.792;9.172;2023-11-22T17:57:07;98738.44;;;19.63;78.44
60375;BME280;70244;48.792;9.172;2023-11-22T17:59:37;98735.41;;;19.60;78.32
60375;BME280;70244;48.792;9.172;2023-11-22T18:02:08;98739.81;;;19.35;78.28
60375;BME280;70244;48.792;9.172;2023-11-22T18:04:38;98741.80;;;19.18;78.79
60375;BME280;70244;48.792;9.172;2023-11-22T18:07:09;98744.23;;;19.18;78.50
60375;BME280;70244;48.792;9.172;2023-11-22T18:09:39;98747.49;;;19.17;78.58
60375;BME280;70244;48.792;9.172;2023-11-22T18:12:10;98746.05;;;19.30;77.92
60375;BME280;70244;48.792;9.172;2023-11-22T18:14:41;98738.08;;;20.23;67.43
60375;BME280;70244;48.792;9.172;2023-11-22T18:17:11;98733.17;;;19.73;71.84
60375;BME280;70244;48.792;9.172;2023-11-22T18:19:42;98729.06;;;19.09;73.47
60375;BME280;70244;48.792;9.172;2023-11-22T18:22:13;98733.33;;;18.72;74.11
60375;BME280;70244;48.792;9.172;2023-11-22T18:24:43;98725.61;;;18.88;73.66
60375;BME280;70244;48.792;9.172;2023-11-22T18:27:14;98720.71;;;18.87;73.68
60375;BME280;70244;48.792;9.172;2023-11-22T18:29:44;98720.22;;;19.22;70.82
60375;BME280;70244;48.792;9.172;2023-11-22T18:32:15;98722.29;;;20.40;53.34
60375;BME280;70244;48.792;9.172;2023-11-22T18:34:45;98730.79;;;19.32;49.05
60375;BME280;70244;48.792;9.172;2023-11-22T18:37:16;98732.16;;;19.24;49.16